TimeEST,TemperatureF,Dew PointF,Humidity,Sea Level PressureIn,VisibilityMPH,Wind Direction,Wind SpeedMPH,Gust SpeedMPH,PrecipitationIn,Events,Conditions,WindDirDegrees,DateUTC
12:15 AM,37.4,30.2,75,30.04,10.0,West,15.0,23.0,N/A,,Mostly Cloudy,270,2013-01-10 05:15:00
12:35 AM,37.4,28.4,70,30.06,10.0,West,15.0,26.5,N/A,,Overcast,280,2013-01-10 05:35:00
12:55 AM,37.4,26.6,65,30.07,10.0,West,21.9,33.4,N/A,,Overcast,270,2013-01-10 05:55:00
1:15 AM,37.4,26.6,65,30.09,10.0,West,16.1,29.9,N/A,,Overcast,280,2013-01-10 06:15:00
1:35 AM,37.4,24.8,60,30.11,10.0,WNW,24.2,33.4,N/A,,Mostly Cloudy,290,2013-01-10 06:35:00
1:55 AM,37.4,24.8,60,30.12,10.0,WNW,13.8,24.2,N/A,,Overcast,290,2013-01-10 06:55:00
2:15 AM,37.4,26.6,65,30.14,9.0,WNW,15.0,26.5,N/A,,Overcast,290,2013-01-10 07:15:00
2:35 AM,37.4,24.8,60,30.14,10.0,WNW,16.1,26.5,N/A,,Mostly Cloudy,290,2013-01-10 07:35:00
2:55 AM,37.4,23.0,56,30.15,10.0,WNW,23.0,32.2,N/A,,Mostly Cloudy,290,2013-01-10 07:55:00
3:35 AM,37.4,21.2,52,30.18,10.0,West,20.7,33.4,N/A,,Mostly Cloudy,280,2013-01-10 08:35:00
3:55 AM,37.4,21.2,52,30.20,10.0,WNW,13.8,26.5,N/A,,Mostly Cloudy,300,2013-01-10 08:55:00
4:15 AM,37.4,21.2,52,30.21,10.0,WNW,17.3,23.0,N/A,,Partly Cloudy,300,2013-01-10 09:15:00
4:35 AM,35.6,21.2,56,30.22,10.0,WNW,12.7,20.7,N/A,,Scattered Clouds,300,2013-01-10 09:35:00
4:55 AM,35.6,21.2,56,30.23,10.0,NW,10.4,16.1,N/A,,Mostly Cloudy,310,2013-01-10 09:55:00
5:15 AM,35.6,21.2,56,30.22,10.0,NW,10.4,16.1,N/A,,Scattered Clouds,310,2013-01-10 10:15:00
5:35 AM,35.6,19.4,52,30.25,10.0,WNW,10.4,16.1,N/A,,Scattered Clouds,290,2013-01-10 10:35:00
5:55 AM,35.6,19.4,52,30.26,10.0,WNW,8.1,-,N/A,,Overcast,290,2013-01-10 10:55:00
6:35 AM,35.6,19.4,52,30.30,10.0,West,6.9,-,N/A,,Partly Cloudy,280,2013-01-10 11:35:00
6:55 AM,33.8,21.2,60,30.32,10.0,West,8.1,-,N/A,,Mostly Cloudy,270,2013-01-10 11:55:00
7:15 AM,35.6,19.4,52,30.33,10.0,West,9.2,-,N/A,,Overcast,280,2013-01-10 12:15:00
7:35 AM,33.8,19.4,56,30.34,10.0,West,9.2,-,N/A,,Mostly Cloudy,280,2013-01-10 12:35:00
7:55 AM,33.8,21.2,60,30.35,10.0,West,5.8,-,N/A,,Mostly Cloudy,280,2013-01-10 12:55:00
8:55 AM,35.6,21.2,56,30.38,10.0,West,5.8,-,N/A,,Mostly Cloudy,280,2013-01-10 13:55:00
9:15 AM,35.6,21.2,56,30.39,10.0,WNW,9.2,-,N/A,,Mostly Cloudy,300,2013-01-10 14:15:00
9:35 AM,35.6,19.4,52,30.40,10.0,West,6.9,-,N/A,,Mostly Cloudy,280,2013-01-10 14:35:00
9:55 AM,37.4,21.2,52,30.41,10.0,WNW,8.1,16.1,N/A,,Partly Cloudy,290,2013-01-10 14:55:00
10:15 AM,37.4,21.2,52,30.42,10.0,WNW,8.1,-,N/A,,Scattered Clouds,300,2013-01-10 15:15:00
10:55 AM,37.4,19.4,48,30.41,10.0,WNW,10.4,19.6,N/A,,Overcast,300,2013-01-10 15:55:00
11:15 AM,37.4,21.2,52,30.41,10.0,NW,13.8,18.4,N/A,,Scattered Clouds,310,2013-01-10 16:15:00
11:55 AM,37.4,19.4,48,30.40,10.0,WNW,12.7,19.6,N/A,,Mostly Cloudy,300,2013-01-10 16:55:00
12:15 PM,39.2,21.2,49,30.39,10.0,NW,10.4,-,N/A,,Mostly Cloudy,320,2013-01-10 17:15:00
12:35 PM,39.2,19.4,45,30.40,10.0,NW,13.8,17.3,N/A,,Mostly Cloudy,320,2013-01-10 17:35:00
12:55 PM,37.4,19.4,48,30.41,10.0,NNW,10.4,18.4,N/A,,Mostly Cloudy,330,2013-01-10 17:55:00
1:15 PM,37.4,21.2,52,30.41,10.0,North,12.7,17.3,N/A,,Partly Cloudy,360,2013-01-10 18:15:00
1:35 PM,37.4,21.2,52,30.42,10.0,North,13.8,18.4,N/A,,Clear,360,2013-01-10 18:35:00
1:55 PM,37.4,21.2,52,30.43,10.0,NNW,8.1,-,N/A,,Clear,340,2013-01-10 18:55:00
2:15 PM,37.4,21.2,52,30.43,10.0,North,16.1,-,N/A,,Clear,350,2013-01-10 19:15:00
2:55 PM,37.4,21.2,52,30.45,10.0,NNW,9.2,-,N/A,,Clear,340,2013-01-10 19:55:00
3:15 PM,37.4,21.2,52,30.46,10.0,NNW,8.1,16.1,N/A,,Clear,340,2013-01-10 20:15:00
3:35 PM,37.4,21.2,52,30.47,10.0,NW,6.9,-,N/A,,Clear,320,2013-01-10 20:35:00
3:55 PM,37.4,21.2,52,30.46,10.0,North,10.4,-,N/A,,Clear,350,2013-01-10 20:55:00
4:15 PM,35.6,21.2,56,30.48,10.0,NW,5.8,-,N/A,,Clear,320,2013-01-10 21:15:00
4:35 PM,35.6,21.2,56,30.48,10.0,NW,6.9,-,N/A,,Clear,310,2013-01-10 21:35:00
4:55 PM,35.6,21.2,56,30.48,10.0,NW,8.1,-,N/A,,Clear,310,2013-01-10 21:55:00
5:35 PM,33.8,21.2,60,30.49,10.0,Calm,Calm,-,N/A,,Clear,0,2013-01-10 22:35:00
5:55 PM,32.0,21.2,64,30.49,10.0,Calm,Calm,-,N/A,,Clear,0,2013-01-10 22:55:00
6:15 PM,30.2,21.2,69,30.49,10.0,NW,3.5,-,N/A,,Clear,320,2013-01-10 23:15:00
6:35 PM,32.0,21.2,64,30.49,10.0,WNW,5.8,-,N/A,,Clear,300,2013-01-10 23:35:00
6:55 PM,30.2,21.2,69,30.50,10.0,Calm,Calm,-,N/A,,Clear,0,2013-01-10 23:55:00
7:15 PM,28.4,21.2,74,30.50,10.0,ESE,3.5,-,N/A,,Clear,120,2013-01-11 00:15:00
7:55 PM,28.4,19.4,69,30.51,10.0,ESE,3.5,-,N/A,,Clear,110,2013-01-11 00:55:00
8:15 PM,28.4,21.2,74,30.52,10.0,Calm,Calm,-,N/A,,Clear,0,2013-01-11 01:15:00
8:35 PM,28.4,23.0,80,30.52,10.0,Calm,Calm,-,N/A,,Clear,0,2013-01-11 01:35:00
8:55 PM,28.4,21.2,74,30.52,10.0,Calm,Calm,-,N/A,,Clear,0,2013-01-11 01:55:00
9:15 PM,28.4,21.2,74,30.53,10.0,Calm,Calm,-,N/A,,Clear,0,2013-01-11 02:15:00
9:35 PM,26.6,21.2,80,30.52,10.0,Calm,Calm,-,N/A,,Clear,0,2013-01-11 02:35:00
10:15 PM,26.6,21.2,80,30.54,10.0,SE,6.9,-,N/A,,Clear,140,2013-01-11 03:15:00
10:35 PM,26.6,21.2,80,30.53,10.0,SE,5.8,-,N/A,,Clear,130,2013-01-11 03:35:00
10:55 PM,24.8,21.2,86,30.52,10.0,ESE,4.6,-,N/A,,Clear,110,2013-01-11 03:55:00
11:15 PM,26.6,19.4,74,30.53,10.0,SE,8.1,-,N/A,,Clear,140,2013-01-11 04:15:00
11:35 PM,26.6,21.2,80,30.53,10.0,ESE,9.2,-,N/A,,Clear,120,2013-01-11 04:35:00
11:55 PM,26.6,21.2,80,30.53,10.0,SE,6.9,-,N/A,,Clear,140,2013-01-11 04:55:00